Minatitlan Airport
MMMT : now visible

Airfield :











YOU CAN JOIN US ON...

 
LOGIN :

Register | Disclaimer

   EN    FR    IT 

 









Legend :    VFR   Marginal VFR   IFR   Intensive IFR   Very Intensive IFR
Visi :
Ceiling :
>= 8 km
>= 3000ft
5 to 8 km
1000 to 3000 ft
1500m to 5 km
500 to 1000 ft
800 to 1500m
200 to 500 ft
< 800m
< 200 ft
Symbols :   Thunderstorms  Fog  Heavy snow  Heavy precipitations  Wind > 20 kt






- Airport Elevation : 36 ft
- IATA code : MTT


MMMT - Minatitlan

CURRENT METAR :
  • 062058Z RTD 02012KT 7SM SCT050 30/25 A2982 RMK SLP173 57009 914 8/100

EXPIRED METARs :
  • 061940Z 02010KT 7SM SCT050 30/24 A2984 RMK 8/100
  • 061841Z 02010KT 7SM SCT050 31/24 A2986 RMK 8/100

TAF TAF MMMT
Valid from the 06 at 18:00 until the 07 at 18:00 UTC


061721Z 0618/0718 03008KT P6SM SCT040
FM070000 03008KT 6SM HZ BKN020
TEMPO 0704/0708 4SM RA BKN012



MET'MAP, your aeronautical weather chart ! - Copyright ORBIFLY December 2007 - Disclaimer

ORBIFLY MET'MAP TEAM :

Programming & Development : Alexandra Zaïnal
Concept & original design : Baudouin d'Aumeries
Assistance for programming : Marc-Olivier Méhu
Technical & hardware support : Manuel Goepfert

Contact : metmap@orbifly.com




SOURCES & CREDITS :

   NOAA       Earth
Advisory